Terminal Aerodrome Forecast
Issued by NWS

Current Version | Previous Version | Graphics & Text | Print | Product List | Glossary On
Versions: 1 2 3 4 5 6 7 8 9 10 11 12 13 14 15 16 17 18 19 20 21 22 23 24
000
FTUS41 KILN 210800 AAA
TAFLCK
TAF AMD
KLCK 210828Z 2108/2206 VRB03KT 5SM BR BKN060
      TEMPO 2108/2110 BKN025
     FM211100 30008KT P6SM -SHRA OVC025
      TEMPO 2111/2115 4SM -SHRA
     FM211500 31010G18KT P6SM VCSH OVC025
     FM212200 32008KT P6SM OVC018=

USA.gov is the U.S. government's official web portal to all federal, state and local government web resources and services.